Time;durP1;ratioP1;P1;durP2;ratioP2;P2;SDS_P1;SDS_P2;PMS_P1;PMS_P2;Temp;Humidity;BMP_temperature;BMP_pressure;BME280_temperature;BME280_humidity;BME280_pressure;Samples;Min_cycle;Max_cycle;Signal;HPM_P1;HPM_P2
2022/11/12 00:00:59;;;;;;;21.17;6.55;;;;;;;17.00;100.00;99407.22;6123473;23;20441;-92
2022/11/12 00:03:24;;;;;;;14.40;6.22;;;;;;;17.28;100.00;99408.31;6120922;23;20030;-93
2022/11/12 00:05:50;;;;;;;15.02;6.68;;;;;;;16.95;100.00;99411.75;6121198;23;20018;-93
2022/11/12 00:08:16;;;;;;;14.40;6.38;;;;;;;17.56;100.00;99405.78;6121010;23;20006;-93
2022/11/12 00:10:42;;;;;;;14.00;6.70;;;;;;;16.98;100.00;99406.41;6120852;23;20030;-91
2022/11/12 00:13:07;;;;;;;17.13;7.03;;;;;;;16.85;100.00;99405.81;6121031;23;20005;-94
2022/11/12 00:15:32;;;;;;;15.98;6.85;;;;;;;17.27;100.00;99404.81;6122980;23;20020;-94
2022/11/12 00:17:58;;;;;;;15.65;7.25;;;;;;;17.14;100.00;99413.94;6119967;23;20044;-94
2022/11/12 00:20:23;;;;;;;16.92;6.88;;;;;;;17.18;100.00;99410.31;6122087;23;20034;-93
2022/11/12 00:22:49;;;;;;;22.67;7.30;;;;;;;17.17;100.00;99416.47;6120259;23;20018;-92
2022/11/12 00:25:14;;;;;;;15.35;6.95;;;;;;;17.46;100.00;99420.13;6118984;23;20014;-93
2022/11/12 00:27:40;;;;;;;17.50;7.57;;;;;;;17.42;100.00;99429.88;6119020;23;20012;-93
2022/11/12 00:30:06;;;;;;;17.88;7.53;;;;;;;17.96;100.00;99417.03;6121730;23;20025;-93
2022/11/12 00:32:36;;;;;;;20.38;7.38;;;;;;;17.67;100.00;99421.31;6120649;23;20014;-94
2022/11/12 00:35:05;;;;;;;18.80;7.10;;;;;;;16.69;100.00;99423.75;6123274;23;20002;-93
2022/11/12 00:37:31;;;;;;;16.38;7.40;;;;;;;16.88;100.00;99440.03;6122182;23;20005;-92
2022/11/12 00:39:57;;;;;;;16.60;7.07;;;;;;;16.77;100.00;99435.88;6121032;23;20018;-93
2022/11/12 00:42:22;;;;;;;16.15;7.88;;;;;;;16.80;100.00;99438.41;6120374;23;20014;-94
2022/11/12 00:44:48;;;;;;;18.40;7.70;;;;;;;17.15;100.00;99423.56;6120586;23;20495;-94
2022/11/12 00:47:14;;;;;;;16.27;7.32;;;;;;;16.95;100.00;99418.78;6119920;23;20602;-94
2022/11/12 00:49:44;;;;;;;17.58;7.35;;;;;;;17.04;100.00;99427.31;6120753;23;20013;-93
2022/11/12 00:52:09;;;;;;;17.15;7.20;;;;;;;16.80;100.00;99430.50;6121261;23;20002;-93
2022/11/12 00:54:35;;;;;;;15.52;7.88;;;;;;;17.03;100.00;99417.69;6120113;23;20014;-93
2022/11/12 00:57:00;;;;;;;17.73;6.97;;;;;;;16.73;100.00;99425.41;6120315;23;20018;-93
2022/11/12 00:59:25;;;;;;;17.75;7.22;;;;;;;17.45;100.00;99421.88;6120215;23;20017;-93
2022/11/12 01:01:51;;;;;;;18.23;7.32;;;;;;;17.26;100.00;99424.16;6119832;23;20018;-92
2022/11/12 01:04:16;;;;;;;15.70;6.75;;;;;;;17.14;100.00;99427.09;6122882;23;20778;-92
2022/11/12 01:06:43;;;;;;;19.45;7.00;;;;;;;16.55;100.00;99429.34;6118939;23;20013;-93
2022/11/12 01:09:08;;;;;;;14.02;6.80;;;;;;;17.01;100.00;99431.81;6115097;23;20251;-93
2022/11/12 01:11:34;;;;;;;16.90;6.85;;;;;;;17.37;100.00;99418.63;6117706;23;20451;-91
2022/11/12 01:14:06;;;;;;;17.63;6.75;;;;;;;17.42;100.00;99414.06;6115008;23;20014;-92
2022/11/12 01:16:35;;;;;;;14.98;6.25;;;;;;;18.01;100.00;99417.75;6113629;23;20017;-92
2022/11/12 01:19:03;;;;;;;14.13;6.32;;;;;;;16.67;100.00;99428.19;6116679;23;20145;-93
2022/11/12 01:21:31;;;;;;;13.75;5.75;;;;;;;16.65;100.00;99429.97;6117287;23;20009;-92
2022/11/12 01:23:58;;;;;;;14.85;6.78;;;;;;;17.25;100.00;99416.31;6143855;23;20014;-93
2022/11/12 01:26:27;;;;;;;19.58;6.55;;;;;;;17.52;100.00;99417.31;6131932;23;20060;-93
2022/11/12 01:28:53;;;;;;;14.48;5.95;;;;;;;17.42;100.00;99431.69;6120871;23;20498;-93
2022/11/12 01:31:25;;;;;;;14.32;6.82;;;;;;;17.79;100.00;99422.78;6117489;23;20014;-93
2022/11/12 01:33:56;;;;;;;17.25;6.82;;;;;;;17.86;100.00;99424.31;6134733;23;20069;-92
2022/11/12 01:36:24;;;;;;;16.42;6.90;;;;;;;17.75;100.00;99422.84;6139476;23;20014;-92
2022/11/12 01:38:50;;;;;;;14.68;6.70;;;;;;;17.18;100.00;99426.13;6122386;23;20018;-90
2022/11/12 01:41:31;;;;;;;19.13;8.10;;;;;;;17.13;100.00;99422.72;6119935;23;20018;-91
2022/11/12 01:44:14;;;;;;;16.05;7.28;;;;;;;17.09;100.00;99410.53;6120349;23;20002;-92
2022/11/12 01:47:06;;;;;;;22.23;7.60;;;;;;;17.46;100.00;99404.31;6119135;23;20539;-91
2022/11/12 01:49:40;;;;;;;19.40;7.22;;;;;;;17.03;100.00;99414.19;6118418;23;20010;-92
2022/11/12 01:52:16;;;;;;;20.63;7.55;;;;;;;16.41;100.00;99399.81;6118300;23;20006;-91
2022/11/12 01:54:45;;;;;;;16.70;7.18;;;;;;;16.64;100.00;99401.06;6121278;23;20005;-92
2022/11/12 01:57:12;;;;;;;19.75;8.00;;;;;;;16.25;100.00;99393.16;6121466;23;20021;-91
2022/11/12 01:59:42;;;;;;;16.83;8.15;;;;;;;16.36;100.00;99385.91;6120911;23;20340;-92
2022/11/12 02:02:08;;;;;;;21.15;9.00;;;;;;;16.09;100.00;99400.50;6121673;23;20052;-92
2022/11/12 02:04:37;;;;;;;17.73;8.27;;;;;;;16.04;100.00;99403.25;6121477;23;20029;-90
2022/11/12 02:07:05;;;;;;;20.25;8.68;;;;;;;16.14;100.00;99399.50;6119440;23;20016;-91
2022/11/12 02:09:31;;;;;;;18.67;8.82;;;;;;;16.32;100.00;99392.13;6120802;23;20013;-91
2022/11/12 02:11:58;;;;;;;17.27;8.80;;;;;;;16.27;100.00;99388.72;6121038;23;20069;-92
2022/11/12 02:14:23;;;;;;;18.42;8.18;;;;;;;15.99;100.00;99411.25;6120147;23;20444;-92
2022/11/12 02:16:49;;;;;;;17.88;8.88;;;;;;;16.45;100.00;99404.13;6120523;23;20097;-93
2022/11/12 02:19:16;;;;;;;16.77;8.05;;;;;;;16.31;100.00;99398.28;6120413;23;20018;-91
2022/11/12 02:21:42;;;;;;;19.92;8.52;;;;;;;16.32;100.00;99402.66;6119659;23;20073;-93
2022/11/12 02:24:10;;;;;;;19.63;8.02;;;;;;;16.24;100.00;99397.53;6121082;23;20010;-92
2022/11/12 02:26:40;;;;;;;16.27;7.53;;;;;;;16.22;100.00;99394.09;6121277;23;20020;-93
2022/11/12 02:29:06;;;;;;;22.58;8.05;;;;;;;16.27;100.00;99399.25;6120470;23;20072;-92
2022/11/12 02:31:31;;;;;;;17.98;8.38;;;;;;;15.99;100.00;99387.56;6119962;23;20388;-92
2022/11/12 02:33:57;;;;;;;21.08;8.85;;;;;;;15.86;100.00;99386.09;6121749;23;20499;-91
2022/11/12 02:36:23;;;;;;;18.38;8.40;;;;;;;16.14;100.00;99393.41;6121189;23;20010;-92
2022/11/12 02:38:49;;;;;;;19.92;8.50;;;;;;;16.24;100.00;99384.38;6122519;23;20009;-92
2022/11/12 02:41:15;;;;;;;19.17;8.38;;;;;;;16.26;100.00;99389.66;6119962;23;20009;-93
2022/11/12 02:43:41;;;;;;;17.25;8.32;;;;;;;15.91;100.00;99375.47;6120707;23;20020;-92
2022/11/12 02:46:07;;;;;;;20.58;8.07;;;;;;;16.01;100.00;99375.22;6120159;23;20018;-92
2022/11/12 02:48:32;;;;;;;17.75;8.45;;;;;;;16.52;100.00;99370.59;6120058;23;20006;-93
2022/11/12 02:50:58;;;;;;;19.27;8.35;;;;;;;16.08;100.00;99370.72;6119982;23;20097;-93
2022/11/12 02:53:23;;;;;;;18.02;8.38;;;;;;;16.24;100.00;99376.50;6119601;23;20014;-94
2022/11/12 02:55:49;;;;;;;18.10;7.72;;;;;;;16.19;100.00;99376.59;6120604;23;20013;-90
2022/11/12 02:58:15;;;;;;;17.45;8.02;;;;;;;15.90;100.00;99377.22;6117942;23;20005;-92
2022/11/12 03:03:18;;;;;;;19.33;8.80;;;;;;;16.46;100.00;99382.13;6077695;23;20026;-93
2022/11/12 03:05:45;;;;;;;17.17;8.38;;;;;;;16.46;100.00;99386.56;6063630;23;20014;-94
2022/11/12 03:08:11;;;;;;;19.27;8.90;;;;;;;16.32;100.00;99389.50;6088970;23;20010;-93
2022/11/12 03:10:40;;;;;;;16.83;8.00;;;;;;;16.02;100.00;99384.00;6066738;23;20022;-94
2022/11/12 03:13:05;;;;;;;21.10;8.75;;;;;;;16.27;100.00;99391.34;6092364;23;20025;-94
2022/11/12 03:15:31;;;;;;;17.92;8.52;;;;;;;16.15;100.00;99395.13;6067487;23;20010;-94
2022/11/12 03:17:58;;;;;;;15.32;7.95;;;;;;;16.27;100.00;99399.25;6068600;23;20428;-94
2022/11/12 03:20:25;;;;;;;17.00;8.13;;;;;;;16.12;100.00;99406.59;6067367;23;20010;-93
2022/11/12 03:23:05;;;;;;;18.05;8.98;;;;;;;16.65;100.00;99403.66;6067817;23;20014;-93
2022/11/12 03:25:30;;;;;;;21.67;9.20;;;;;;;16.25;100.00;99408.97;6091991;23;20014;-93
2022/11/12 03:28:02;;;;;;;18.52;8.38;;;;;;;16.42;100.00;99401.53;6092698;23;20009;-92
2022/11/12 03:30:31;;;;;;;17.13;8.40;;;;;;;16.82;100.00;99418.19;6092634;23;20086;-93
2022/11/12 03:32:56;;;;;;;18.15;8.50;;;;;;;16.55;100.00;99404.78;6091551;23;20007;-93
2022/11/12 03:35:22;;;;;;;16.23;8.13;;;;;;;16.86;100.00;99394.38;6094932;23;20002;-94
2022/11/12 03:37:48;;;;;;;17.48;8.18;;;;;;;16.99;100.00;99396.72;6068897;23;20011;-94
2022/11/12 03:40:13;;;;;;;14.18;7.15;;;;;;;16.95;100.00;99388.06;6068199;23;20081;-94
2022/11/12 03:42:47;;;;;;;16.45;7.07;;;;;;;16.63;100.00;99401.94;6067609;23;20468;-92
2022/11/12 03:45:13;;;;;;;15.90;6.78;;;;;;;16.34;100.00;99403.50;6067926;23;20387;-93
2022/11/12 03:47:43;;;;;;;13.80;5.93;;;;;;;16.42;100.00;99395.41;6068255;23;20014;-92
2022/11/12 03:50:10;;;;;;;15.95;6.25;;;;;;;16.23;100.00;99405.47;6068055;23;20012;-93
2022/11/12 03:52:36;;;;;;;12.60;6.07;;;;;;;16.55;100.00;99399.50;6091682;23;20018;-92
2022/11/12 03:55:04;;;;;;;15.65;6.55;;;;;;;16.86;100.00;99396.13;6093320;23;20014;-93
2022/11/12 03:57:29;;;;;;;17.58;6.40;;;;;;;16.53;100.00;99404.81;6092714;23;20041;-93
2022/11/12 03:59:55;;;;;;;13.77;6.10;;;;;;;17.40;100.00;99395.66;6093317;23;20356;-93
2022/11/12 04:02:20;;;;;;;15.90;6.80;;;;;;;16.45;100.00;99404.13;6067742;23;20018;-92
2022/11/12 04:10:13;;;;;;;17.55;7.45;;;;;;;17.03;100.00;99409.78;6093578;23;20021;-93
2022/11/12 04:15:25;;;;;;;18.23;8.02;;;;;;;17.43;100.00;99397.34;6094098;23;20025;-93
2022/11/12 04:23:32;;;;;;;15.20;6.55;;;;;;;17.12;100.00;99387.63;6033504;23;20114;-93
2022/11/12 04:30:14;;;;;;;13.82;6.57;;;;;;;16.92;100.00;99372.28;6032822;23;20059;-93
2022/11/12 04:31:27;;;;;;;18.27;7.30;;;;;;;17.05;100.00;99370.25;6032112;23;20015;-93
2022/11/12 04:33:52;;;;;;;16.58;6.93;;;;;;;16.33;100.00;99378.94;6032598;23;20694;-94
2022/11/12 04:36:18;;;;;;;12.98;6.63;;;;;;;16.90;100.00;99371.50;6008390;23;20046;-92
2022/11/12 04:38:44;;;;;;;15.23;7.00;;;;;;;17.16;100.00;99370.81;6007713;23;20397;-93
2022/11/12 04:46:38;;;;;;;17.63;7.00;;;;;;;16.92;100.00;99382.84;6032105;23;20052;-94
2022/11/12 04:49:03;;;;;;;16.08;6.53;;;;;;;17.22;100.00;99380.34;6034876;23;20011;-92
2022/11/12 04:54:13;;;;;;;13.63;6.43;;;;;;;16.63;100.00;99383.50;6045770;23;20167;-94
2022/11/12 04:56:39;;;;;;;16.52;7.20;;;;;;;16.28;100.00;99382.56;6010355;23;20098;-93
2022/11/12 04:59:04;;;;;;;14.07;6.28;;;;;;;16.68;100.00;99379.88;6036537;23;20022;-92
2022/11/12 05:01:29;;;;;;;15.60;6.47;;;;;;;15.83;100.00;99381.75;6071053;23;20029;-92
2022/11/12 05:03:55;;;;;;;17.83;7.00;;;;;;;16.41;100.00;99373.50;6110987;23;20018;-93
2022/11/12 05:09:04;;;;;;;15.13;6.47;;;;;;;16.62;100.00;99373.88;6093383;23;20021;-94
2022/11/12 05:11:29;;;;;;;15.77;6.13;;;;;;;16.36;100.00;99375.38;6066791;23;20307;-94
2022/11/12 05:13:55;;;;;;;12.75;5.63;;;;;;;16.38;100.00;99373.53;6092620;23;20093;-94
2022/11/12 05:16:20;;;;;;;14.75;5.88;;;;;;;16.61;100.00;99385.34;6092408;23;20014;-93
2022/11/12 05:18:45;;;;;;;14.43;5.70;;;;;;;16.19;100.00;99381.88;6092139;23;20006;-94
2022/11/12 05:23:55;;;;;;;13.90;4.97;;;;;;;15.57;100.00;99387.50;6093492;23;20507;-93
2022/11/12 05:26:20;;;;;;;13.75;5.07;;;;;;;15.99;100.00;99386.69;6092820;23;20002;-93
2022/11/12 05:28:46;;;;;;;12.85;5.30;;;;;;;16.08;100.00;99383.00;6093633;23;20007;-93
2022/11/12 05:31:13;;;;;;;12.90;5.40;;;;;;;15.62;100.00;99390.06;6095207;23;20016;-93
2022/11/12 05:33:38;;;;;;;12.20;4.82;;;;;;;16.13;100.00;99383.75;6094459;23;20065;-94
2022/11/12 05:36:04;;;;;;;11.65;5.30;;;;;;;16.19;100.00;99391.53;6069387;23;20069;-92
2022/11/12 05:38:29;;;;;;;13.25;4.90;;;;;;;16.57;100.00;99381.03;6069916;23;20011;-94
2022/11/12 05:40:55;;;;;;;11.95;4.93;;;;;;;16.37;100.00;99382.38;6094812;23;20006;-92
2022/11/12 05:43:20;;;;;;;12.38;4.63;;;;;;;16.08;100.00;99380.38;6093929;23;20080;-93
2022/11/12 05:45:47;;;;;;;17.42;5.95;;;;;;;15.66;100.00;99383.84;6068959;23;20002;-95
2022/11/12 05:48:13;;;;;;;13.48;4.88;;;;;;;15.73;100.00;99376.66;6092815;23;20244;-92
2022/11/12 05:50:38;;;;;;;12.80;5.10;;;;;;;15.80;100.00;99376.56;6094460;23;20022;-94
2022/11/12 05:53:03;;;;;;;14.05;5.35;;;;;;;15.47;100.00;99380.69;6069327;23;20037;-94
2022/11/12 05:55:30;;;;;;;12.68;4.72;;;;;;;15.37;100.00;99377.38;6069199;23;20006;-94
2022/11/12 06:01:17;;;;;;;13.90;5.03;;;;;;;15.33;100.00;99383.56;6094246;23;20029;-94
2022/11/12 06:03:43;;;;;;;13.10;4.95;;;;;;;15.16;100.00;99390.00;6063671;23;20027;-93
2022/11/12 06:06:09;;;;;;;11.98;4.68;;;;;;;15.25;100.00;99386.31;6088424;23;20103;-94
2022/11/12 06:08:34;;;;;;;12.35;4.65;;;;;;;15.64;100.00;99383.88;6063816;23;20653;-93
2022/11/12 06:11:00;;;;;;;14.80;5.30;;;;;;;15.42;100.00;99387.78;6087890;23;20015;-94
2022/11/12 06:13:25;;;;;;;11.85;4.43;;;;;;;15.87;100.00;99377.31;6063761;23;20102;-93
2022/11/12 06:15:52;;;;;;;11.70;4.70;;;;;;;15.92;100.00;99388.59;6087033;23;20045;-91
2022/11/12 06:18:18;;;;;;;12.88;4.90;;;;;;;15.06;100.00;99385.81;6065396;23;20015;-93
2022/11/12 06:21:18;;;;;;;13.60;5.18;;;;;;;15.92;100.00;99382.47;6064298;23;20017;-96
2022/11/12 06:23:32;;;;;;;15.07;4.28;;;;;;;15.49;100.00;99384.13;6064148;23;20015;-94
2022/11/12 06:25:57;;;;;;;13.18;4.70;;;;;;;15.70;100.00;99385.50;6085724;23;20026;-93
2022/11/12 06:28:23;;;;;;;8.93;3.65;;;;;;;15.30;100.00;99389.75;6062897;23;20327;-92
2022/11/12 06:30:48;;;;;;;13.40;4.30;;;;;;;16.13;100.00;99389.91;6063392;23;20129;-92
2022/11/12 06:33:13;;;;;;;13.70;4.18;;;;;;;15.77;100.00;99396.75;6061154;23;20061;-92
2022/11/12 06:35:39;;;;;;;15.30;4.22;;;;;;;15.85;100.00;99393.13;6061359;23;20026;-92
2022/11/12 06:38:04;;;;;;;11.80;4.35;;;;;;;16.20;100.00;99386.25;6062603;23;20018;-92
2022/11/12 06:40:30;;;;;;;11.50;3.83;;;;;;;16.58;100.00;99396.81;6063242;23;20014;-92
2022/11/12 06:42:57;;;;;;;9.02;3.80;;;;;;;16.33;100.00;99402.63;6085727;23;20010;-93
2022/11/12 06:45:23;;;;;;;10.60;3.75;;;;;;;16.13;100.00;99394.28;6063931;23;20825;-94
2022/11/12 06:47:48;;;;;;;9.95;3.53;;;;;;;15.57;100.00;99400.63;6063774;23;20038;-93
2022/11/12 06:50:14;;;;;;;9.10;3.55;;;;;;;15.83;100.00;99396.69;6064914;23;20002;-93
2022/11/12 06:52:39;;;;;;;10.45;3.50;;;;;;;16.13;100.00;99395.16;6063326;23;20029;-93
2022/11/12 06:55:07;;;;;;;9.35;3.45;;;;;;;15.85;100.00;99400.13;6063043;23;20002;-93
2022/11/12 06:57:33;;;;;;;12.60;3.63;;;;;;;15.94;100.00;99389.41;6064488;23;20018;-92
2022/11/12 06:59:59;;;;;;;7.82;2.75;;;;;;;15.93;100.00;99399.97;6086841;23;20508;-94
2022/11/12 07:02:24;;;;;;;11.30;3.67;;;;;;;16.52;100.00;99399.56;6063989;23;20062;-93
2022/11/12 07:04:51;;;;;;;10.15;3.40;;;;;;;16.66;100.00;99399.22;6070067;23;20010;-93
2022/11/12 07:07:16;;;;;;;9.02;3.35;;;;;;;16.55;100.00;99399.50;6088175;23;20022;-92
2022/11/12 07:09:42;;;;;;;7.95;2.97;;;;;;;17.01;100.00;99405.47;6078438;23;20014;-94
2022/11/12 07:12:07;;;;;;;10.10;2.90;;;;;;;17.31;100.00;99389.75;6070580;23;20416;-94
2022/11/12 07:14:33;;;;;;;11.30;3.67;;;;;;;16.44;100.00;99393.63;6096035;23;20008;-95
2022/11/12 07:16:58;;;;;;;10.27;3.42;;;;;;;16.77;100.00;99397.25;6084186;23;20025;-94
2022/11/12 07:19:24;;;;;;;8.90;3.08;;;;;;;17.41;100.00;99388.59;6102570;23;20526;-95
2022/11/12 07:21:50;;;;;;;10.23;3.60;;;;;;;17.83;100.00;99390.97;6072591;23;20021;-94
2022/11/12 07:24:15;;;;;;;8.65;3.10;;;;;;;17.32;100.00;99389.72;6097254;23;20014;-95
2022/11/12 07:26:41;;;;;;;11.35;3.42;;;;;;;17.13;100.00;99386.72;6070351;23;20132;-93
2022/11/12 07:29:06;;;;;;;8.50;3.20;;;;;;;15.85;100.00;99397.50;6072087;23;20089;-96
2022/11/12 07:31:32;;;;;;;9.45;3.22;;;;;;;16.21;100.00;99392.34;6070239;23;20340;-93
2022/11/12 07:33:59;;;;;;;9.60;3.40;;;;;;;16.85;100.00;99387.38;6069642;23;20429;-94
2022/11/12 07:36:25;;;;;;;10.88;3.38;;;;;;;17.03;100.00;99391.34;6092966;23;20114;-93
2022/11/12 07:38:52;;;;;;;10.60;3.13;;;;;;;16.57;100.00;99408.22;6087049;23;20020;-94
2022/11/12 07:41:20;;;;;;;10.02;3.20;;;;;;;17.10;100.00;99399.94;6089865;23;20025;-93
2022/11/12 07:43:51;;;;;;;11.25;2.90;;;;;;;16.41;100.00;99412.09;6089747;23;20018;-94
2022/11/12 07:46:20;;;;;;;9.05;3.00;;;;;;;15.89;100.00;99403.56;6066824;23;20018;-93
2022/11/12 07:48:46;;;;;;;11.07;3.45;;;;;;;16.65;100.00;99397.53;6089629;23;20006;-93
2022/11/12 07:51:14;;;;;;;10.15;3.40;;;;;;;16.15;100.00;99400.41;6089952;23;20025;-93
2022/11/12 07:53:44;;;;;;;13.48;3.42;;;;;;;16.19;100.00;99405.56;6067968;23;20049;-94
2022/11/12 07:56:12;;;;;;;8.98;3.30;;;;;;;15.91;100.00;99400.03;6093064;23;20011;-92
2022/11/12 07:58:38;;;;;;;10.82;3.33;;;;;;;16.61;100.00;99394.09;6096173;23;20010;-95
2022/11/12 08:01:24;;;;;;;10.25;3.63;;;;;;;17.03;100.00;99391.34;6092510;23;20749;-96
2022/11/12 08:03:50;;;;;;;10.35;3.40;;;;;;;16.76;100.00;99381.44;6063259;23;20493;-95
2022/11/12 08:06:15;;;;;;;10.63;3.75;;;;;;;17.80;100.00;99369.97;6062862;23;20014;-93
2022/11/12 08:08:43;;;;;;;8.73;3.05;;;;;;;17.54;100.00;99363.63;6063156;23;20025;-94
2022/11/12 08:11:09;;;;;;;9.00;3.55;;;;;;;16.55;100.00;99376.66;6061356;23;20041;-93
2022/11/12 08:13:34;;;;;;;10.98;3.28;;;;;;;16.24;100.00;99383.53;6086941;23;20014;-93
2022/11/12 08:16:00;;;;;;;8.88;3.40;;;;;;;17.54;100.00;99384.72;6062205;23;20014;-93
2022/11/12 08:18:26;;;;;;;11.65;4.15;;;;;;;16.01;100.00;99396.28;6062811;23;20010;-93
2022/11/12 08:20:51;;;;;;;11.07;3.55;;;;;;;16.73;100.00;99377.16;6085665;23;20013;-94
2022/11/12 08:23:17;;;;;;;10.90;3.63;;;;;;;16.19;100.00;99387.13;6062054;23;20177;-94
2022/11/12 08:25:42;;;;;;;11.07;3.95;;;;;;;16.35;100.00;99382.41;6064889;23;20010;-94
2022/11/12 08:28:08;;;;;;;10.50;3.90;;;;;;;16.52;100.00;99389.03;6062558;23;20022;-93
2022/11/12 08:30:33;;;;;;;10.48;3.83;;;;;;;16.17;100.00;99382.78;6088880;23;20050;-93
2022/11/12 08:33:02;;;;;;;11.52;3.65;;;;;;;16.01;100.00;99383.13;6067306;23;20031;-94
2022/11/12 08:35:28;;;;;;;9.20;4.10;;;;;;;16.57;100.00;99379.25;6067104;23;20017;-94
2022/11/12 08:38:01;;;;;;;12.10;4.30;;;;;;;17.13;100.00;99378.81;6065851;23;20010;-94
2022/11/12 08:40:28;;;;;;;11.00;4.10;;;;;;;17.89;100.00;99379.38;6090034;23;20010;-92
2022/11/12 08:42:58;;;;;;;10.45;3.55;;;;;;;16.58;100.00;99393.31;6064668;23;20256;-93
2022/11/12 08:45:23;;;;;;;9.10;3.30;;;;;;;16.99;100.00;99381.81;6088926;23;20071;-93
2022/11/12 08:47:49;;;;;;;11.30;3.67;;;;;;;16.79;100.00;99389.28;6088072;23;20018;-94
2022/11/12 08:50:14;;;;;;;11.48;4.32;;;;;;;16.65;100.00;99379.09;6064436;23;20007;-94
2022/11/12 08:52:40;;;;;;;10.35;4.13;;;;;;;16.71;100.00;99385.09;6063290;23;20018;-93
2022/11/12 08:55:06;;;;;;;12.50;4.07;;;;;;;16.51;100.00;99387.31;6062148;23;20022;-94
2022/11/12 08:57:40;;;;;;;11.27;4.38;;;;;;;16.35;100.00;99395.56;6062547;23;20461;-93
2022/11/12 09:00:06;;;;;;;11.02;4.32;;;;;;;17.00;100.00;99390.56;6089773;23;20429;-93
2022/11/12 09:02:31;;;;;;;11.93;4.70;;;;;;;16.79;100.00;99398.06;6069187;23;20007;-92
2022/11/12 09:04:56;;;;;;;12.02;4.25;;;;;;;16.43;100.00;99384.00;6071147;23;20032;-91
2022/11/12 09:24:14;;;;;;;13.38;4.57;;;;;;;16.90;100.00;99371.50;6089340;23;20076;-93
2022/11/12 09:26:39;;;;;;;10.35;3.72;;;;;;;17.31;100.00;99373.94;6074024;23;20440;-94
2022/11/12 09:29:04;;;;;;;10.25;4.80;;;;;;;16.85;100.00;99376.84;6073181;23;20010;-94
2022/11/12 09:31:30;;;;;;;10.23;4.35;;;;;;;16.58;100.00;99383.63;6074411;23;20024;-94
2022/11/12 09:33:56;;;;;;;10.10;4.40;;;;;;;16.78;100.00;99377.88;6096095;23;20046;-94
2022/11/12 09:36:21;;;;;;;12.88;4.53;;;;;;;16.70;100.00;99385.97;6071513;23;20014;-93
2022/11/12 09:38:47;;;;;;;10.35;4.15;;;;;;;16.55;100.00;99399.50;6072131;23;20085;-94
2022/11/12 09:41:26;;;;;;;10.43;4.20;;;;;;;17.64;100.00;99390.63;6095921;23;20013;-94
2022/11/12 09:43:58;;;;;;;13.77;4.10;;;;;;;17.43;100.00;99381.53;6098295;23;20006;-94
2022/11/12 09:46:55;;;;;;;9.57;4.05;;;;;;;17.47;100.00;99387.59;6096198;23;20097;-93
2022/11/12 09:49:37;;;;;;;10.80;3.55;;;;;;;17.01;100.00;99389.66;6096319;23;20026;-94
2022/11/12 09:52:27;;;;;;;12.23;4.05;;;;;;;16.94;100.00;99375.78;6096554;23;20014;-93
2022/11/12 09:55:12;;;;;;;12.15;4.20;;;;;;;16.83;100.00;99390.97;6096378;23;20003;-93
2022/11/12 09:57:38;;;;;;;10.77;3.20;;;;;;;17.47;100.00;99377.91;6071128;23;20002;-93
2022/11/12 10:00:18;;;;;;;9.80;3.50;;;;;;;17.00;100.00;99387.94;6096947;23;20436;-93
2022/11/12 10:02:58;;;;;;;11.27;3.90;;;;;;;17.54;100.00;99383.88;6094510;23;20070;-93
2022/11/12 10:05:32;;;;;;;9.27;3.25;;;;;;;17.85;100.00;99397.06;6100970;23;20014;-96
2022/11/12 10:08:04;;;;;;;10.77;3.60;;;;;;;17.68;100.00;99397.53;6075681;23;20029;-95
2022/11/12 10:10:35;;;;;;;10.95;3.90;;;;;;;18.01;100.00;99400.16;6075983;23;20010;-95
2022/11/12 10:13:28;;;;;;;12.07;3.90;;;;;;;18.49;100.00;99400.50;6075243;23;20010;-95
2022/11/12 10:16:42;;;;;;;12.32;3.80;;;;;;;18.06;100.00;99386.81;6076521;23;20732;-95
2022/11/12 10:19:28;;;;;;;12.35;3.78;;;;;;;18.01;100.00;99405.44;6077233;23;20010;-95
2022/11/12 10:22:06;;;;;;;11.20;3.33;;;;;;;18.19;100.00;99395.22;6102263;23;20025;-96
2022/11/12 10:24:37;;;;;;;9.02;3.45;;;;;;;17.77;100.00;99392.91;6079605;23;20029;-94
2022/11/12 10:27:25;;;;;;;11.50;3.80;;;;;;;17.57;100.00;99399.63;6079091;23;20020;-95
2022/11/12 10:30:01;;;;;;;14.77;4.10;;;;;;;17.03;100.00;99399.22;6101083;23;20037;-95
2022/11/12 10:32:27;;;;;;;12.82;4.18;;;;;;;17.27;100.00;99409.19;6101407;23;20009;-95
2022/11/12 10:34:56;;;;;;;12.55;3.92;;;;;;;17.15;100.00;99410.41;6076039;23;20010;-95
2022/11/12 10:37:21;;;;;;;9.90;4.10;;;;;;;18.00;100.00;99410.78;6105143;23;20018;-95
2022/11/12 10:39:47;;;;;;;10.05;4.22;;;;;;;17.42;100.00;99405.31;6086254;23;20080;-95
2022/11/12 10:42:16;;;;;;;9.25;3.97;;;;;;;17.44;100.00;99399.09;6104744;23;20014;-95
2022/11/12 10:44:42;;;;;;;12.35;4.43;;;;;;;17.59;100.00;99400.41;6080190;23;20022;-95
2022/11/12 10:47:41;;;;;;;13.52;4.85;;;;;;;17.81;100.00;99397.19;6082802;23;20011;-95
2022/11/12 10:50:43;;;;;;;12.80;4.93;;;;;;;16.78;100.00;99396.31;6085889;23;20014;-95
2022/11/12 10:53:11;;;;;;;13.13;5.35;;;;;;;16.66;100.00;99399.22;6114790;23;20010;-96
2022/11/12 10:55:55;;;;;;;15.90;5.78;;;;;;;17.55;100.00;99401.41;6106299;23;20006;-96
2022/11/12 10:58:20;;;;;;;15.32;5.88;;;;;;;17.13;100.00;99401.66;6106122;23;20425;-95
2022/11/12 11:00:52;;;;;;;16.38;5.95;;;;;;;17.10;100.00;99392.03;6109220;23;20010;-95
2022/11/12 11:03:52;;;;;;;14.02;5.97;;;;;;;17.09;100.00;99398.25;6082749;23;20281;-95
2022/11/12 11:06:23;;;;;;;13.20;6.07;;;;;;;17.81;100.00;99384.84;6057505;23;20022;-94
2022/11/12 11:08:51;;;;;;;14.18;6.57;;;;;;;16.95;100.00;99382.78;6108883;23;20323;-95
2022/11/12 11:11:24;;;;;;;15.35;6.80;;;;;;;16.93;100.00;99383.72;6109736;23;20010;-95
2022/11/12 11:13:52;;;;;;;17.52;7.47;;;;;;;16.55;100.00;99391.63;6088224;23;20012;-93
2022/11/12 11:16:26;;;;;;;17.33;6.90;;;;;;;17.27;100.00;99383.72;6084043;23;20010;-94
2022/11/12 11:19:04;;;;;;;19.95;7.60;;;;;;;17.37;100.00;99377.28;6084985;23;20009;-95
2022/11/12 11:22:01;;;;;;;23.70;7.10;;;;;;;17.69;100.00;99378.19;6093792;23;20014;-95
2022/11/12 11:24:43;;;;;;;16.17;6.68;;;;;;;18.28;100.00;99370.34;6118222;23;20459;-95
2022/11/12 11:27:34;;;;;;;17.88;6.90;;;;;;;18.25;100.00;99376.59;6114591;23;19995;-95
2022/11/12 11:30:20;;;;;;;14.45;6.82;;;;;;;18.46;100.00;99369.75;6091635;23;20006;-96
2022/11/12 11:33:28;;;;;;;17.40;7.68;;;;;;;17.49;100.00;99364.66;6096276;23;20010;-92
2022/11/12 11:36:08;;;;;;;12.85;6.78;;;;;;;17.74;100.00;99356.94;6092568;23;20007;-95
2022/11/12 11:38:38;;;;;;;15.73;7.85;;;;;;;18.25;100.00;99339.63;6092032;23;20025;-94
2022/11/12 11:41:42;;;;;;;13.57;7.10;;;;;;;18.13;100.00;99340.84;6092625;23;20025;-94
2022/11/12 11:44:43;;;;;;;15.65;6.85;;;;;;;18.09;100.00;99344.50;6091707;23;20069;-95
2022/11/12 11:47:33;;;;;;;15.85;7.30;;;;;;;18.24;100.00;99337.88;6092321;23;20042;-94
2022/11/12 11:50:32;;;;;;;15.38;7.05;;;;;;;17.61;100.00;99334.47;6086011;23;20010;-95
2022/11/12 11:56:26;;;;;;;16.77;7.75;;;;;;;17.98;100.00;99336.94;6101958;23;20098;-94
2022/11/12 11:59:29;;;;;;;18.42;8.95;;;;;;;17.93;100.00;99325.63;6101705;23;20014;-95
2022/11/12 12:02:33;;;;;;;15.57;7.88;;;;;;;17.99;100.00;99322.78;6075968;23;20018;-94
2022/11/12 12:05:50;;;;;;;18.70;7.78;;;;;;;24.95;92.58;99442.22;6077292;23;20010;-95
2022/11/12 12:08:54;;;;;;;17.13;7.32;;;;;;;17.92;100.00;99368.75;6074921;23;20452;-94
2022/11/12 12:11:32;;;;;;;16.27;7.90;;;;;;;19.36;100.00;99367.69;6058441;23;20011;-94
2022/11/12 12:14:24;;;;;;;16.02;7.43;;;;;;;18.79;100.00;99344.94;6071853;23;20014;-94
2022/11/12 12:17:39;;;;;;;16.23;7.47;;;;;;;19.17;100.00;99338.38;6070973;23;20014;-95
2022/11/12 12:20:17;;;;;;;14.48;7.82;;;;;;;18.34;100.00;99333.19;6034069;23;20033;-94
2022/11/12 12:23:09;;;;;;;16.80;7.57;;;;;;;18.92;100.00;99315.44;6071542;23;20036;-95
2022/11/12 12:25:40;;;;;;;16.10;7.65;;;;;;;17.15;100.00;99336.59;6095030;23;20006;-95
2022/11/12 12:28:48;;;;;;;16.20;7.25;;;;;;;17.36;100.00;99332.50;6070999;23;20046;-94